sensor_id;sensor_type;location;lat;lon;timestamp;P1;durP1;ratioP1;P2;durP2;ratioP2
49422;SDS011;36998;51.974;20.150;2022-08-02T00:01:55;13.27;;;7.72;;
49422;SDS011;36998;51.974;20.150;2022-08-02T00:04:20;17.38;;;8.55;;
49422;SDS011;36998;51.974;20.150;2022-08-02T00:06:46;17.60;;;8.57;;
49422;SDS011;36998;51.974;20.150;2022-08-02T00:09:14;17.02;;;9.15;;
49422;SDS011;36998;51.974;20.150;2022-08-02T00:11:48;13.23;;;8.38;;
49422;SDS011;36998;51.974;20.150;2022-08-02T00:14:14;12.23;;;8.90;;
49422;SDS011;36998;51.974;20.150;2022-08-02T00:16:40;20.98;;;9.32;;
49422;SDS011;36998;51.974;20.150;2022-08-02T00:19:05;18.77;;;9.80;;
49422;SDS011;36998;51.974;20.150;2022-08-02T00:21:31;16.55;;;10.40;;
49422;SDS011;36998;51.974;20.150;2022-08-02T00:23:56;17.52;;;10.23;;
49422;SDS011;36998;51.974;20.150;2022-08-02T00:26:22;16.85;;;10.68;;
49422;SDS011;36998;51.974;20.150;2022-08-02T00:28:47;17.35;;;11.25;;
49422;SDS011;36998;51.974;20.150;2022-08-02T00:31:13;18.27;;;11.20;;
49422;SDS011;36998;51.974;20.150;2022-08-02T00:33:38;21.20;;;11.85;;
49422;SDS011;36998;51.974;20.150;2022-08-02T00:36:04;22.02;;;11.70;;
49422;SDS011;36998;51.974;20.150;2022-08-02T00:38:29;17.02;;;11.27;;
49422;SDS011;36998;51.974;20.150;2022-08-02T00:40:55;25.92;;;13.13;;
49422;SDS011;36998;51.974;20.150;2022-08-02T00:43:20;22.00;;;12.25;;
49422;SDS011;36998;51.974;20.150;2022-08-02T00:45:46;21.15;;;12.82;;
49422;SDS011;36998;51.974;20.150;2022-08-02T00:48:11;21.52;;;12.35;;
49422;SDS011;36998;51.974;20.150;2022-08-02T00:50:37;23.55;;;11.25;;
49422;SDS011;36998;51.974;20.150;2022-08-02T00:53:04;16.42;;;10.95;;
49422;SDS011;36998;51.974;20.150;2022-08-02T00:55:33;16.98;;;9.90;;
49422;SDS011;36998;51.974;20.150;2022-08-02T00:58:00;18.30;;;9.90;;
49422;SDS011;36998;51.974;20.150;2022-08-02T01:00:25;16.85;;;10.13;;
49422;SDS011;36998;51.974;20.150;2022-08-02T01:02:51;15.73;;;10.10;;
49422;SDS011;36998;51.974;20.150;2022-08-02T01:05:16;16.13;;;8.57;;
49422;SDS011;36998;51.974;20.150;2022-08-02T01:07:42;19.95;;;10.02;;
49422;SDS011;36998;51.974;20.150;2022-08-02T01:10:08;17.02;;;9.02;;
49422;SDS011;36998;51.974;20.150;2022-08-02T01:12:33;20.58;;;9.65;;
49422;SDS011;36998;51.974;20.150;2022-08-02T01:14:59;16.77;;;9.85;;
49422;SDS011;36998;51.974;20.150;2022-08-02T01:17:35;16.80;;;9.70;;
49422;SDS011;36998;51.974;20.150;2022-08-02T01:23:17;16.85;;;9.52;;
49422;SDS011;36998;51.974;20.150;2022-08-02T01:28:51;13.38;;;8.88;;
49422;SDS011;36998;51.974;20.150;2022-08-02T01:31:26;14.75;;;8.68;;
49422;SDS011;36998;51.974;20.150;2022-08-02T01:34:01;12.68;;;8.30;;
49422;SDS011;36998;51.974;20.150;2022-08-02T01:36:37;15.75;;;8.95;;
49422;SDS011;36998;51.974;20.150;2022-08-02T01:39:04;11.35;;;7.80;;
49422;SDS011;36998;51.974;20.150;2022-08-02T01:41:35;11.27;;;7.85;;
49422;SDS011;36998;51.974;20.150;2022-08-02T01:44:03;13.48;;;8.43;;
49422;SDS011;36998;51.974;20.150;2022-08-02T01:46:31;11.23;;;7.65;;
49422;SDS011;36998;51.974;20.150;2022-08-02T01:48:58;14.10;;;9.10;;
49422;SDS011;36998;51.974;20.150;2022-08-02T01:51:28;15.93;;;10.48;;
49422;SDS011;36998;51.974;20.150;2022-08-02T01:54:14;14.80;;;12.02;;
49422;SDS011;36998;51.974;20.150;2022-08-02T01:56:42;19.40;;;11.82;;
49422;SDS011;36998;51.974;20.150;2022-08-02T01:59:10;16.30;;;11.43;;
49422;SDS011;36998;51.974;20.150;2022-08-02T02:01:38;20.35;;;12.15;;
49422;SDS011;36998;51.974;20.150;2022-08-02T02:04:06;18.58;;;12.65;;
49422;SDS011;36998;51.974;20.150;2022-08-02T02:06:33;13.80;;;11.23;;
49422;SDS011;36998;51.974;20.150;2022-08-02T02:09:01;17.02;;;10.82;;
49422;SDS011;36998;51.974;20.150;2022-08-02T02:11:27;19.17;;;12.07;;
49422;SDS011;36998;51.974;20.150;2022-08-02T02:13:54;18.88;;;13.18;;
49422;SDS011;36998;51.974;20.150;2022-08-02T02:16:22;16.65;;;13.23;;
49422;SDS011;36998;51.974;20.150;2022-08-02T02:18:49;17.95;;;14.13;;
49422;SDS011;36998;51.974;20.150;2022-08-02T02:21:16;18.73;;;15.88;;
49422;SDS011;36998;51.974;20.150;2022-08-02T02:23:42;20.25;;;17.23;;
49422;SDS011;36998;51.974;20.150;2022-08-02T02:26:07;19.35;;;16.02;;
49422;SDS011;36998;51.974;20.150;2022-08-02T02:29:00;21.83;;;16.90;;
49422;SDS011;36998;51.974;20.150;2022-08-02T02:31:28;20.15;;;15.90;;
49422;SDS011;36998;51.974;20.150;2022-08-02T02:34:15;20.67;;;16.17;;
49422;SDS011;36998;51.974;20.150;2022-08-02T02:36:45;24.73;;;18.08;;
49422;SDS011;36998;51.974;20.150;2022-08-02T02:39:31;22.40;;;15.93;;
49422;SDS011;36998;51.974;20.150;2022-08-02T02:42:00;25.83;;;17.73;;
49422;SDS011;36998;51.974;20.150;2022-08-02T02:44:28;23.53;;;17.23;;
49422;SDS011;36998;51.974;20.150;2022-08-02T02:46:55;21.77;;;18.48;;
49422;SDS011;36998;51.974;20.150;2022-08-02T02:49:21;29.13;;;19.80;;
49422;SDS011;36998;51.974;20.150;2022-08-02T02:51:48;22.95;;;19.35;;
49422;SDS011;36998;51.974;20.150;2022-08-02T02:54:16;25.80;;;20.80;;
49422;SDS011;36998;51.974;20.150;2022-08-02T02:56:42;28.38;;;19.90;;
49422;SDS011;36998;51.974;20.150;2022-08-02T02:59:09;26.02;;;20.30;;
49422;SDS011;36998;51.974;20.150;2022-08-02T03:01:58;25.07;;;19.90;;
49422;SDS011;36998;51.974;20.150;2022-08-02T03:04:26;23.40;;;20.02;;
49422;SDS011;36998;51.974;20.150;2022-08-02T03:06:53;33.08;;;20.67;;
49422;SDS011;36998;51.974;20.150;2022-08-02T03:09:18;28.05;;;20.83;;
49422;SDS011;36998;51.974;20.150;2022-08-02T03:11:44;26.58;;;19.92;;
49422;SDS011;36998;51.974;20.150;2022-08-02T03:14:10;27.35;;;19.25;;
49422;SDS011;36998;51.974;20.150;2022-08-02T03:16:41;23.10;;;18.58;;
49422;SDS011;36998;51.974;20.150;2022-08-02T03:19:08;28.52;;;20.23;;
49422;SDS011;36998;51.974;20.150;2022-08-02T03:21:34;29.85;;;21.23;;
49422;SDS011;36998;51.974;20.150;2022-08-02T03:24:00;30.83;;;21.55;;
49422;SDS011;36998;51.974;20.150;2022-08-02T03:26:25;28.98;;;21.40;;
49422;SDS011;36998;51.974;20.150;2022-08-02T03:28:50;25.42;;;20.45;;
49422;SDS011;36998;51.974;20.150;2022-08-02T03:31:16;24.83;;;19.05;;
49422;SDS011;36998;51.974;20.150;2022-08-02T03:33:41;29.30;;;20.02;;
49422;SDS011;36998;51.974;20.150;2022-08-02T03:36:09;20.92;;;17.42;;
49422;SDS011;36998;51.974;20.150;2022-08-02T03:38:37;22.85;;;18.05;;
49422;SDS011;36998;51.974;20.150;2022-08-02T03:41:04;21.83;;;18.10;;
49422;SDS011;36998;51.974;20.150;2022-08-02T03:43:31;25.33;;;19.25;;
49422;SDS011;36998;51.974;20.150;2022-08-02T03:45:57;22.75;;;18.63;;
49422;SDS011;36998;51.974;20.150;2022-08-02T03:48:24;22.20;;;18.48;;
49422;SDS011;36998;51.974;20.150;2022-08-02T03:50:51;27.98;;;18.98;;
49422;SDS011;36998;51.974;20.150;2022-08-02T03:53:18;22.67;;;18.42;;
49422;SDS011;36998;51.974;20.150;2022-08-02T03:55:44;22.45;;;18.25;;
49422;SDS011;36998;51.974;20.150;2022-08-02T03:58:22;24.60;;;19.55;;
49422;SDS011;36998;51.974;20.150;2022-08-02T04:00:49;20.15;;;16.90;;
49422;SDS011;36998;51.974;20.150;2022-08-02T04:03:15;21.33;;;17.83;;
49422;SDS011;36998;51.974;20.150;2022-08-02T04:05:41;27.42;;;18.27;;
49422;SDS011;36998;51.974;20.150;2022-08-02T04:08:07;22.58;;;18.33;;
49422;SDS011;36998;51.974;20.150;2022-08-02T04:10:32;23.95;;;17.30;;
49422;SDS011;36998;51.974;20.150;2022-08-02T04:13:21;24.70;;;18.00;;
49422;SDS011;36998;51.974;20.150;2022-08-02T04:15:54;24.52;;;17.77;;
49422;SDS011;36998;51.974;20.150;2022-08-02T04:18:38;21.35;;;16.95;;
49422;SDS011;36998;51.974;20.150;2022-08-02T04:21:07;20.33;;;17.27;;
49422;SDS011;36998;51.974;20.150;2022-08-02T04:23:38;19.63;;;17.23;;
49422;SDS011;36998;51.974;20.150;2022-08-02T04:26:06;18.15;;;16.05;;
49422;SDS011;36998;51.974;20.150;2022-08-02T04:28:32;21.63;;;16.52;;
49422;SDS011;36998;51.974;20.150;2022-08-02T04:30:59;19.33;;;15.18;;
49422;SDS011;36998;51.974;20.150;2022-08-02T04:33:25;22.15;;;16.08;;
49422;SDS011;36998;51.974;20.150;2022-08-02T04:35:51;16.80;;;14.95;;
49422;SDS011;36998;51.974;20.150;2022-08-02T04:38:17;17.83;;;14.55;;
49422;SDS011;36998;51.974;20.150;2022-08-02T04:40:52;17.10;;;14.98;;
49422;SDS011;36998;51.974;20.150;2022-08-02T04:43:19;16.40;;;14.57;;
49422;SDS011;36998;51.974;20.150;2022-08-02T04:45:46;17.85;;;14.65;;
49422;SDS011;36998;51.974;20.150;2022-08-02T04:50:50;17.33;;;13.95;;
49422;SDS011;36998;51.974;20.150;2022-08-02T04:53:15;20.10;;;14.73;;
49422;SDS011;36998;51.974;20.150;2022-08-02T04:55:41;17.60;;;14.90;;
49422;SDS011;36998;51.974;20.150;2022-08-02T04:58:07;18.08;;;14.25;;
49422;SDS011;36998;51.974;20.150;2022-08-02T05:00:33;18.15;;;15.55;;
49422;SDS011;36998;51.974;20.150;2022-08-02T05:02:59;20.55;;;15.63;;
49422;SDS011;36998;51.974;20.150;2022-08-02T05:05:25;16.20;;;14.35;;
49422;SDS011;36998;51.974;20.150;2022-08-02T05:07:53;17.80;;;15.23;;
49422;SDS011;36998;51.974;20.150;2022-08-02T05:10:19;18.52;;;15.25;;
49422;SDS011;36998;51.974;20.150;2022-08-02T05:12:45;22.25;;;15.63;;
49422;SDS011;36998;51.974;20.150;2022-08-02T05:15:11;20.20;;;15.52;;
49422;SDS011;36998;51.974;20.150;2022-08-02T05:17:37;16.45;;;14.68;;
49422;SDS011;36998;51.974;20.150;2022-08-02T05:20:04;17.63;;;14.60;;
49422;SDS011;36998;51.974;20.150;2022-08-02T05:22:29;18.35;;;13.82;;
49422;SDS011;36998;51.974;20.150;2022-08-02T05:24:55;18.98;;;14.77;;
49422;SDS011;36998;51.974;20.150;2022-08-02T05:27:20;16.67;;;14.90;;
49422;SDS011;36998;51.974;20.150;2022-08-02T05:29:46;20.92;;;15.82;;
49422;SDS011;36998;51.974;20.150;2022-08-02T05:32:11;20.42;;;17.42;;
49422;SDS011;36998;51.974;20.150;2022-08-02T05:34:37;25.00;;;17.42;;
49422;SDS011;36998;51.974;20.150;2022-08-02T05:37:02;20.27;;;16.80;;
49422;SDS011;36998;51.974;20.150;2022-08-02T05:39:29;23.75;;;15.98;;
49422;SDS011;36998;51.974;20.150;2022-08-02T05:41:54;23.25;;;17.33;;
49422;SDS011;36998;51.974;20.150;2022-08-02T05:44:20;20.98;;;17.88;;
49422;SDS011;36998;51.974;20.150;2022-08-02T05:46:45;20.40;;;17.58;;
49422;SDS011;36998;51.974;20.150;2022-08-02T05:49:16;18.70;;;16.70;;
49422;SDS011;36998;51.974;20.150;2022-08-02T05:51:44;25.13;;;18.00;;
49422;SDS011;36998;51.974;20.150;2022-08-02T05:54:30;21.67;;;17.77;;
49422;SDS011;36998;51.974;20.150;2022-08-02T05:57:13;24.08;;;18.73;;
49422;SDS011;36998;51.974;20.150;2022-08-02T05:59:57;19.73;;;17.27;;
49422;SDS011;36998;51.974;20.150;2022-08-02T06:06:04;22.90;;;17.73;;
49422;SDS011;36998;51.974;20.150;2022-08-02T06:08:42;21.65;;;17.75;;
49422;SDS011;36998;51.974;20.150;2022-08-02T06:11:14;20.52;;;17.65;;
49422;SDS011;36998;51.974;20.150;2022-08-02T06:13:42;21.40;;;17.70;;
49422;SDS011;36998;51.974;20.150;2022-08-02T06:16:09;22.25;;;18.42;;
49422;SDS011;36998;51.974;20.150;2022-08-02T06:18:35;20.40;;;16.67;;
49422;SDS011;36998;51.974;20.150;2022-08-02T06:21:04;19.35;;;16.05;;
49422;SDS011;36998;51.974;20.150;2022-08-02T06:23:33;24.20;;;18.83;;
49422;SDS011;36998;51.974;20.150;2022-08-02T06:26:05;21.98;;;16.42;;
49422;SDS011;36998;51.974;20.150;2022-08-02T06:28:34;19.48;;;15.95;;
49422;SDS011;36998;51.974;20.150;2022-08-02T06:31:01;22.88;;;15.80;;
49422;SDS011;36998;51.974;20.150;2022-08-02T06:33:27;19.42;;;16.45;;
49422;SDS011;36998;51.974;20.150;2022-08-02T06:35:59;22.50;;;17.35;;
49422;SDS011;36998;51.974;20.150;2022-08-02T06:38:36;20.63;;;17.30;;
49422;SDS011;36998;51.974;20.150;2022-08-02T06:41:09;21.08;;;16.60;;
49422;SDS011;36998;51.974;20.150;2022-08-02T06:43:58;21.90;;;16.48;;
49422;SDS011;36998;51.974;20.150;2022-08-02T06:46:24;17.58;;;15.18;;
49422;SDS011;36998;51.974;20.150;2022-08-02T06:48:52;18.73;;;14.98;;
49422;SDS011;36998;51.974;20.150;2022-08-02T06:51:18;19.75;;;14.50;;
49422;SDS011;36998;51.974;20.150;2022-08-02T06:53:44;21.20;;;14.20;;
49422;SDS011;36998;51.974;20.150;2022-08-02T06:56:10;18.33;;;13.70;;
49422;SDS011;36998;51.974;20.150;2022-08-02T06:58:36;19.70;;;13.75;;
49422;SDS011;36998;51.974;20.150;2022-08-02T07:01:01;19.02;;;13.60;;
49422;SDS011;36998;51.974;20.150;2022-08-02T07:03:32;18.20;;;14.05;;
49422;SDS011;36998;51.974;20.150;2022-08-02T07:05:58;17.23;;;12.52;;
49422;SDS011;36998;51.974;20.150;2022-08-02T07:08:24;12.27;;;10.82;;
49422;SDS011;36998;51.974;20.150;2022-08-02T07:10:50;16.83;;;10.68;;
49422;SDS011;36998;51.974;20.150;2022-08-02T07:13:16;11.52;;;9.45;;
49422;SDS011;36998;51.974;20.150;2022-08-02T07:15:42;14.32;;;8.98;;
49422;SDS011;36998;51.974;20.150;2022-08-02T07:18:07;12.95;;;9.70;;
49422;SDS011;36998;51.974;20.150;2022-08-02T07:20:39;14.57;;;7.95;;
49422;SDS011;36998;51.974;20.150;2022-08-02T07:23:07;12.10;;;8.57;;
49422;SDS011;36998;51.974;20.150;2022-08-02T07:25:33;11.60;;;7.28;;
49422;SDS011;36998;51.974;20.150;2022-08-02T07:27:59;11.38;;;7.75;;
49422;SDS011;36998;51.974;20.150;2022-08-02T07:30:24;8.30;;;7.05;;
49422;SDS011;36998;51.974;20.150;2022-08-02T07:32:50;15.65;;;8.98;;
49422;SDS011;36998;51.974;20.150;2022-08-02T07:35:16;11.38;;;6.65;;
49422;SDS011;36998;51.974;20.150;2022-08-02T07:37:41;8.90;;;7.10;;
49422;SDS011;36998;51.974;20.150;2022-08-02T07:40:10;9.57;;;5.95;;
49422;SDS011;36998;51.974;20.150;2022-08-02T07:42:36;8.02;;;6.50;;
49422;SDS011;36998;51.974;20.150;2022-08-02T07:45:12;9.57;;;7.13;;
49422;SDS011;36998;51.974;20.150;2022-08-02T07:47:39;8.07;;;6.72;;
49422;SDS011;36998;51.974;20.150;2022-08-02T07:50:05;9.85;;;6.38;;
49422;SDS011;36998;51.974;20.150;2022-08-02T07:52:33;8.63;;;5.38;;
49422;SDS011;36998;51.974;20.150;2022-08-02T07:54:58;7.13;;;4.85;;
49422;SDS011;36998;51.974;20.150;2022-08-02T07:57:24;7.68;;;5.13;;
49422;SDS011;36998;51.974;20.150;2022-08-02T07:59:49;8.43;;;4.93;;
49422;SDS011;36998;51.974;20.150;2022-08-02T08:02:15;9.52;;;5.80;;
49422;SDS011;36998;51.974;20.150;2022-08-02T08:05:04;8.50;;;4.72;;
49422;SDS011;36998;51.974;20.150;2022-08-02T08:07:31;8.60;;;6.13;;
49422;SDS011;36998;51.974;20.150;2022-08-02T08:10:32;10.70;;;5.95;;
49422;SDS011;36998;51.974;20.150;2022-08-02T08:12:57;10.07;;;6.00;;
49422;SDS011;36998;51.974;20.150;2022-08-02T08:15:43;6.97;;;5.82;;
49422;SDS011;36998;51.974;20.150;2022-08-02T08:18:09;7.03;;;5.20;;
49422;SDS011;36998;51.974;20.150;2022-08-02T08:20:36;8.90;;;4.95;;
49422;SDS011;36998;51.974;20.150;2022-08-02T08:23:01;10.00;;;5.05;;
49422;SDS011;36998;51.974;20.150;2022-08-02T08:25:27;6.68;;;5.40;;
49422;SDS011;36998;51.974;20.150;2022-08-02T08:27:55;10.25;;;5.50;;
49422;SDS011;36998;51.974;20.150;2022-08-02T08:30:21;10.38;;;5.15;;
49422;SDS011;36998;51.974;20.150;2022-08-02T08:32:46;7.90;;;4.90;;
49422;SDS011;36998;51.974;20.150;2022-08-02T08:35:12;7.45;;;4.80;;
49422;SDS011;36998;51.974;20.150;2022-08-02T08:37:38;5.45;;;4.75;;
49422;SDS011;36998;51.974;20.150;2022-08-02T08:40:04;6.03;;;4.72;;
49422;SDS011;36998;51.974;20.150;2022-08-02T08:42:31;6.30;;;4.75;;
49422;SDS011;36998;51.974;20.150;2022-08-02T08:44:57;5.95;;;4.15;;
49422;SDS011;36998;51.974;20.150;2022-08-02T08:47:27;10.30;;;4.00;;
49422;SDS011;36998;51.974;20.150;2022-08-02T08:49:58;8.80;;;4.20;;
49422;SDS011;36998;51.974;20.150;2022-08-02T08:52:31;9.82;;;4.05;;
49422;SDS011;36998;51.974;20.150;2022-08-02T08:55:03;11.10;;;4.97;;
49422;SDS011;36998;51.974;20.150;2022-08-02T08:57:30;4.82;;;3.88;;
49422;SDS011;36998;51.974;20.150;2022-08-02T08:59:59;5.53;;;3.70;;
49422;SDS011;36998;51.974;20.150;2022-08-02T09:02:25;10.20;;;4.88;;
49422;SDS011;36998;51.974;20.150;2022-08-02T09:04:51;8.35;;;3.92;;
49422;SDS011;36998;51.974;20.150;2022-08-02T09:07:16;8.60;;;4.07;;
49422;SDS011;36998;51.974;20.150;2022-08-02T09:09:42;6.32;;;3.50;;
49422;SDS011;36998;51.974;20.150;2022-08-02T09:12:14;8.80;;;4.43;;
49422;SDS011;36998;51.974;20.150;2022-08-02T09:14:41;6.25;;;3.85;;
49422;SDS011;36998;51.974;20.150;2022-08-02T09:17:07;4.50;;;3.42;;
49422;SDS011;36998;51.974;20.150;2022-08-02T09:19:36;5.50;;;3.33;;
49422;SDS011;36998;51.974;20.150;2022-08-02T09:22:03;3.95;;;3.40;;
49422;SDS011;36998;51.974;20.150;2022-08-02T09:24:48;3.63;;;3.10;;
49422;SDS011;36998;51.974;20.150;2022-08-02T09:27:19;4.72;;;3.60;;
49422;SDS011;36998;51.974;20.150;2022-08-02T09:29:47;6.37;;;3.40;;
49422;SDS011;36998;51.974;20.150;2022-08-02T09:32:14;5.78;;;3.28;;
49422;SDS011;36998;51.974;20.150;2022-08-02T09:34:42;8.40;;;3.42;;
49422;SDS011;36998;51.974;20.150;2022-08-02T09:37:20;6.15;;;3.60;;
49422;SDS011;36998;51.974;20.150;2022-08-02T09:39:49;10.80;;;4.32;;
49422;SDS011;36998;51.974;20.150;2022-08-02T09:42:35;13.52;;;5.85;;
49422;SDS011;36998;51.974;20.150;2022-08-02T09:45:01;7.32;;;3.58;;
49422;SDS011;36998;51.974;20.150;2022-08-02T09:47:32;3.80;;;3.25;;
49422;SDS011;36998;51.974;20.150;2022-08-02T09:49:58;6.13;;;3.90;;
49422;SDS011;36998;51.974;20.150;2022-08-02T09:52:24;4.68;;;3.25;;
49422;SDS011;36998;51.974;20.150;2022-08-02T09:54:52;6.22;;;3.50;;
49422;SDS011;36998;51.974;20.150;2022-08-02T09:57:25;5.25;;;3.55;;
49422;SDS011;36998;51.974;20.150;2022-08-02T09:59:55;8.77;;;3.75;;
49422;SDS011;36998;51.974;20.150;2022-08-02T10:02:22;4.57;;;3.45;;
49422;SDS011;36998;51.974;20.150;2022-08-02T10:04:48;4.80;;;3.30;;
49422;SDS011;36998;51.974;20.150;2022-08-02T10:07:14;7.07;;;3.90;;
49422;SDS011;36998;51.974;20.150;2022-08-02T10:09:41;6.00;;;3.17;;
49422;SDS011;36998;51.974;20.150;2022-08-02T10:12:07;11.00;;;3.53;;
49422;SDS011;36998;51.974;20.150;2022-08-02T10:15:09;5.65;;;3.72;;
49422;SDS011;36998;51.974;20.150;2022-08-02T10:17:35;7.65;;;4.45;;
49422;SDS011;36998;51.974;20.150;2022-08-02T10:20:02;5.38;;;4.18;;
49422;SDS011;36998;51.974;20.150;2022-08-02T10:22:27;7.75;;;4.05;;
49422;SDS011;36998;51.974;20.150;2022-08-02T10:24:56;4.45;;;3.50;;
49422;SDS011;36998;51.974;20.150;2022-08-02T10:27:22;4.55;;;4.03;;
49422;SDS011;36998;51.974;20.150;2022-08-02T10:29:50;7.45;;;4.50;;
49422;SDS011;36998;51.974;20.150;2022-08-02T10:32:18;6.20;;;3.75;;
49422;SDS011;36998;51.974;20.150;2022-08-02T10:35:09;6.88;;;4.32;;
49422;SDS011;36998;51.974;20.150;2022-08-02T10:37:36;6.53;;;4.05;;
49422;SDS011;36998;51.974;20.150;2022-08-02T10:40:04;5.00;;;3.70;;
49422;SDS011;36998;51.974;20.150;2022-08-02T10:42:47;5.80;;;4.03;;
49422;SDS011;36998;51.974;20.150;2022-08-02T10:45:15;8.18;;;4.57;;
49422;SDS011;36998;51.974;20.150;2022-08-02T10:47:59;7.70;;;5.15;;
49422;SDS011;36998;51.974;20.150;2022-08-02T10:55:44;6.05;;;5.20;;
49422;SDS011;36998;51.974;20.150;2022-08-02T10:58:17;8.43;;;5.57;;
49422;SDS011;36998;51.974;20.150;2022-08-02T11:01:27;13.38;;;5.63;;
49422;SDS011;36998;51.974;20.150;2022-08-02T11:03:56;10.60;;;5.40;;
49422;SDS011;36998;51.974;20.150;2022-08-02T11:06:24;6.38;;;5.10;;
49422;SDS011;36998;51.974;20.150;2022-08-02T11:08:49;8.98;;;4.93;;
49422;SDS011;36998;51.974;20.150;2022-08-02T11:11:16;5.30;;;4.72;;
49422;SDS011;36998;51.974;20.150;2022-08-02T11:19:21;6.38;;;4.68;;
49422;SDS011;36998;51.974;20.150;2022-08-02T11:22:03;10.05;;;4.95;;
49422;SDS011;36998;51.974;20.150;2022-08-02T11:24:34;7.03;;;4.20;;
49422;SDS011;36998;51.974;20.150;2022-08-02T11:27:04;7.78;;;4.55;;
49422;SDS011;36998;51.974;20.150;2022-08-02T11:29:38;6.20;;;3.70;;
49422;SDS011;36998;51.974;20.150;2022-08-02T11:32:07;6.13;;;4.22;;
49422;SDS011;36998;51.974;20.150;2022-08-02T11:34:40;5.80;;;4.38;;
49422;SDS011;36998;51.974;20.150;2022-08-02T11:37:06;7.47;;;4.90;;
49422;SDS011;36998;51.974;20.150;2022-08-02T11:39:32;9.20;;;4.68;;
49422;SDS011;36998;51.974;20.150;2022-08-02T11:41:58;9.27;;;3.72;;
49422;SDS011;36998;51.974;20.150;2022-08-02T11:44:38;5.95;;;4.07;;
49422;SDS011;36998;51.974;20.150;2022-08-02T11:47:05;6.38;;;5.15;;
49422;SDS011;36998;51.974;20.150;2022-08-02T11:49:32;5.70;;;5.00;;
49422;SDS011;36998;51.974;20.150;2022-08-02T11:52:02;8.30;;;5.80;;
49422;SDS011;36998;51.974;20.150;2022-08-02T11:57:20;8.50;;;6.47;;
49422;SDS011;36998;51.974;20.150;2022-08-02T12:00:16;8.52;;;6.05;;
49422;SDS011;36998;51.974;20.150;2022-08-02T12:02:46;7.65;;;6.07;;
49422;SDS011;36998;51.974;20.150;2022-08-02T12:05:16;9.80;;;6.20;;
49422;SDS011;36998;51.974;20.150;2022-08-02T12:07:43;12.52;;;6.57;;
49422;SDS011;36998;51.974;20.150;2022-08-02T12:10:11;13.18;;;7.95;;
49422;SDS011;36998;51.974;20.150;2022-08-02T12:12:46;20.88;;;8.85;;
49422;SDS011;36998;51.974;20.150;2022-08-02T12:15:32;10.40;;;6.40;;
49422;SDS011;36998;51.974;20.150;2022-08-02T12:18:16;10.73;;;6.55;;
49422;SDS011;36998;51.974;20.150;2022-08-02T12:21:01;8.02;;;5.68;;
49422;SDS011;36998;51.974;20.150;2022-08-02T12:23:28;10.75;;;5.78;;
49422;SDS011;36998;51.974;20.150;2022-08-02T12:26:03;7.07;;;5.38;;
49422;SDS011;36998;51.974;20.150;2022-08-02T12:28:32;10.05;;;5.57;;
49422;SDS011;36998;51.974;20.150;2022-08-02T12:30:59;6.78;;;5.43;;
49422;SDS011;36998;51.974;20.150;2022-08-02T12:33:28;5.90;;;5.10;;
49422;SDS011;36998;51.974;20.150;2022-08-02T12:36:15;6.55;;;5.40;;
49422;SDS011;36998;51.974;20.150;2022-08-02T12:38:54;6.60;;;5.13;;
49422;SDS011;36998;51.974;20.150;2022-08-02T12:41:24;6.40;;;4.38;;
49422;SDS011;36998;51.974;20.150;2022-08-02T12:43:50;5.50;;;4.18;;
49422;SDS011;36998;51.974;20.150;2022-08-02T12:46:23;5.18;;;4.00;;
49422;SDS011;36998;51.974;20.150;2022-08-02T12:48:49;6.03;;;3.80;;
49422;SDS011;36998;51.974;20.150;2022-08-02T12:51:22;5.68;;;3.83;;
49422;SDS011;36998;51.974;20.150;2022-08-02T12:54:11;6.25;;;3.50;;
49422;SDS011;36998;51.974;20.150;2022-08-02T12:56:42;4.43;;;3.40;;
49422;SDS011;36998;51.974;20.150;2022-08-02T12:59:10;4.68;;;3.00;;
49422;SDS011;36998;51.974;20.150;2022-08-02T13:01:38;6.65;;;3.40;;
49422;SDS011;36998;51.974;20.150;2022-08-02T13:06:32;3.63;;;3.33;;
49422;SDS011;36998;51.974;20.150;2022-08-02T13:08:58;3.97;;;3.00;;
49422;SDS011;36998;51.974;20.150;2022-08-02T13:11:25;6.55;;;3.17;;
49422;SDS011;36998;51.974;20.150;2022-08-02T13:13:51;4.10;;;3.00;;
49422;SDS011;36998;51.974;20.150;2022-08-02T13:16:17;5.28;;;3.35;;
49422;SDS011;36998;51.974;20.150;2022-08-02T13:18:43;3.40;;;3.10;;
49422;SDS011;36998;51.974;20.150;2022-08-02T13:21:12;5.65;;;2.90;;
49422;SDS011;36998;51.974;20.150;2022-08-02T13:23:50;7.10;;;3.35;;
49422;SDS011;36998;51.974;20.150;2022-08-02T13:26:15;5.20;;;2.80;;
49422;SDS011;36998;51.974;20.150;2022-08-02T13:28:41;4.18;;;3.00;;
49422;SDS011;36998;51.974;20.150;2022-08-02T13:31:07;3.83;;;2.83;;
49422;SDS011;36998;51.974;20.150;2022-08-02T13:33:32;6.65;;;3.10;;
49422;SDS011;36998;51.974;20.150;2022-08-02T13:35:58;6.38;;;3.50;;
49422;SDS011;36998;51.974;20.150;2022-08-02T13:38:23;3.25;;;2.90;;
49422;SDS011;36998;51.974;20.150;2022-08-02T13:40:49;5.13;;;2.67;;
49422;SDS011;36998;51.974;20.150;2022-08-02T13:43:33;4.75;;;2.50;;
49422;SDS011;36998;51.974;20.150;2022-08-02T13:45:59;6.35;;;2.60;;
49422;SDS011;36998;51.974;20.150;2022-08-02T13:48:24;5.75;;;2.67;;
49422;SDS011;36998;51.974;20.150;2022-08-02T13:51:25;2.83;;;2.50;;
49422;SDS011;36998;51.974;20.150;2022-08-02T13:53:53;3.00;;;2.65;;
49422;SDS011;36998;51.974;20.150;2022-08-02T13:56:19;3.53;;;2.55;;
49422;SDS011;36998;51.974;20.150;2022-08-02T13:58:44;5.10;;;2.28;;
49422;SDS011;36998;51.974;20.150;2022-08-02T14:01:09;5.80;;;2.88;;
49422;SDS011;36998;51.974;20.150;2022-08-02T14:03:35;3.63;;;2.30;;
49422;SDS011;36998;51.974;20.150;2022-08-02T14:06:00;5.00;;;2.22;;
49422;SDS011;36998;51.974;20.150;2022-08-02T14:08:26;9.18;;;4.15;;
49422;SDS011;36998;51.974;20.150;2022-08-02T14:10:51;5.50;;;2.35;;
49422;SDS011;36998;51.974;20.150;2022-08-02T14:13:17;2.63;;;2.38;;
49422;SDS011;36998;51.974;20.150;2022-08-02T14:15:43;3.83;;;2.72;;
49422;SDS011;36998;51.974;20.150;2022-08-02T14:18:09;9.07;;;3.35;;
49422;SDS011;36998;51.974;20.150;2022-08-02T14:20:35;3.30;;;2.40;;
49422;SDS011;36998;51.974;20.150;2022-08-02T14:23:00;5.55;;;2.40;;
49422;SDS011;36998;51.974;20.150;2022-08-02T14:25:26;6.38;;;2.25;;
49422;SDS011;36998;51.974;20.150;2022-08-02T14:27:51;9.55;;;2.33;;
49422;SDS011;36998;51.974;20.150;2022-08-02T14:30:17;2.72;;;2.40;;
49422;SDS011;36998;51.974;20.150;2022-08-02T14:32:42;3.55;;;2.47;;
49422;SDS011;36998;51.974;20.150;2022-08-02T14:35:08;6.65;;;2.17;;
49422;SDS011;36998;51.974;20.150;2022-08-02T14:37:34;3.95;;;2.65;;
49422;SDS011;36998;51.974;20.150;2022-08-02T14:39:59;2.45;;;2.20;;
49422;SDS011;36998;51.974;20.150;2022-08-02T14:42:31;3.72;;;2.20;;
49422;SDS011;36998;51.974;20.150;2022-08-02T14:44:56;4.43;;;2.50;;
49422;SDS011;36998;51.974;20.150;2022-08-02T14:47:22;3.05;;;2.47;;
49422;SDS011;36998;51.974;20.150;2022-08-02T14:49:47;5.57;;;2.42;;
49422;SDS011;36998;51.974;20.150;2022-08-02T14:52:13;4.53;;;2.78;;
49422;SDS011;36998;51.974;20.150;2022-08-02T14:54:39;5.00;;;2.97;;
49422;SDS011;36998;51.974;20.150;2022-08-02T14:57:07;4.05;;;2.70;;
49422;SDS011;36998;51.974;20.150;2022-08-02T14:59:32;4.72;;;2.38;;
49422;SDS011;36998;51.974;20.150;2022-08-02T15:01:58;5.85;;;3.80;;